Archerfield, Queensland

4:22 AM AEST on February 13, 2016 (GMT +1000)
Darra | | Change Station
CLOSE
Current Station
Personal Weather Station
Location: Darra, QUEENSLAND
Elevation: 89 ft
Nearby Weather Stations

Elev 89 ft 27.56 °S, 152.96 °E | Updated 15 seconds ago

Mostly Cloudy
Mostly Cloudy
66.5 °F
Feels Like 66.5 °F
N
0.9
Wind Variable Wind from West
Gusts 1.3 mph

Today
High -- | Low -- °F
--% Chance of Precip.
Yesterday
High -- | Low -- °F
Precip. -- in
Pressure 29.83 in
Visibility 6.2 miles
Clouds Few 2500 ft
Scattered Clouds 4200 ft
Mostly Cloudy 18000 ft
Dew Point 62 °F
Humidity 84%
Rainfall 0.00 in
Snow Depth Not available.
5:29 AM 6:34 PM
Waxing Crescent, 22% visible
METAR YBBN 121800Z 20007KT 9999 FEW025 SCT042 BKN180 21/17 Q1010 NOSIG
Pressure 29.83 in
Visibility 6.2 miles
Clouds Few 2500 ft
Scattered Clouds 4200 ft
Mostly Cloudy 18000 ft
Dew Point 62 °F
Humidity 84%
Rainfall 0.00 in
Snow Depth Not available.
5:29 AM 6:34 PM
Waxing Crescent, 22% visible
METAR YBBN 121800Z 20007KT 9999 FEW025 SCT042 BKN180 21/17 Q1010 NOSIG

10-Day Weather Forecast

Almanac

Astronomy

Feb. 13, 2016 Rise Set
Actual Time
Civil Twilight
Nautical Twilight
Astronomical Twilight
Moon
Length of Visible Light
Length of Day
Tomorrow will be .
, % of the Moon is Illuminated

Today's Extremes

Country Highs Country Lows

Community

WunderPhotos

Upload Photos

1,892,364 photos uploaded!

WunderBlog® & News

Nearby

Air Quality

  Air Quality AQ Index Pollutant
Not available.

Snow Depth

Station Depth Elevation

Earthquake Activity

City Distance Mag. Time & Date
Minimum magnitude displayed is 2.5.

Coastal Water Temperatures

Place Temperature

Stations

Nearby Weather Stations

Station Location Temp. Windchill Dew Point Humidity Wind Precip. Elev Updated Type